sensor_id;sensor_type;location;lat;lon;timestamp;pressure;altitude;pressure_sealevel;temperature;humidity
31299;BME280;17927;52.350;13.402;2023-06-22T00:01:16;101469.53;;;25.46;48.71
31299;BME280;17927;52.350;13.402;2023-06-22T00:03:41;101470.00;;;25.43;48.32
31299;BME280;17927;52.350;13.402;2023-06-22T00:06:07;101465.97;;;25.39;48.50
31299;BME280;17927;52.350;13.402;2023-06-22T00:08:32;101463.88;;;25.34;48.71
31299;BME280;17927;52.350;13.402;2023-06-22T00:10:57;101466.22;;;25.31;48.42
31299;BME280;17927;52.350;13.402;2023-06-22T00:13:22;101467.75;;;25.27;48.74
31299;BME280;17927;52.350;13.402;2023-06-22T00:15:48;101464.38;;;25.24;48.82
31299;BME280;17927;52.350;13.402;2023-06-22T00:18:13;101462.28;;;25.20;48.76
31299;BME280;17927;52.350;13.402;2023-06-22T00:20:38;101477.19;;;25.19;48.98
31299;BME280;17927;52.350;13.402;2023-06-22T00:23:05;101480.38;;;25.16;49.09
31299;BME280;17927;52.350;13.402;2023-06-22T00:25:37;101479.34;;;25.10;48.96
31299;BME280;17927;52.350;13.402;2023-06-22T00:28:04;101488.91;;;25.07;49.12
31299;BME280;17927;52.350;13.402;2023-06-22T00:30:31;101497.44;;;25.06;49.14
31299;BME280;17927;52.350;13.402;2023-06-22T00:32:57;101495.75;;;25.05;49.33
31299;BME280;17927;52.350;13.402;2023-06-22T00:35:23;101497.44;;;25.06;48.96
31299;BME280;17927;52.350;13.402;2023-06-22T00:37:58;101490.03;;;25.06;49.24
31299;BME280;17927;52.350;13.402;2023-06-22T00:40:29;101494.25;;;25.09;49.52
31299;BME280;17927;52.350;13.402;2023-06-22T00:42:55;101491.03;;;25.12;49.28
31299;BME280;17927;52.350;13.402;2023-06-22T00:45:21;101490.56;;;25.15;49.47
31299;BME280;17927;52.350;13.402;2023-06-22T00:47:49;101484.41;;;25.20;49.55
31299;BME280;17927;52.350;13.402;2023-06-22T00:50:19;101491.38;;;25.22;49.66
31299;BME280;17927;52.350;13.402;2023-06-22T00:52:48;101483.47;;;25.26;49.57
31299;BME280;17927;52.350;13.402;2023-06-22T00:55:13;101484.97;;;25.29;49.27
31299;BME280;17927;52.350;13.402;2023-06-22T00:57:39;101495.34;;;25.33;49.72
31299;BME280;17927;52.350;13.402;2023-06-22T01:00:05;101500.44;;;25.36;49.61
31299;BME280;17927;52.350;13.402;2023-06-22T01:02:32;101503.81;;;25.38;49.45
31299;BME280;17927;52.350;13.402;2023-06-22T01:04:57;101509.97;;;25.41;49.70
31299;BME280;17927;52.350;13.402;2023-06-22T01:07:41;101497.66;;;25.43;49.79
31299;BME280;17927;52.350;13.402;2023-06-22T01:10:21;101500.63;;;25.42;49.66
31299;BME280;17927;52.350;13.402;2023-06-22T01:12:55;101521.03;;;25.41;49.54
31299;BME280;17927;52.350;13.402;2023-06-22T01:15:27;101507.66;;;25.44;49.98
31299;BME280;17927;52.350;13.402;2023-06-22T01:17:56;101513.19;;;25.44;50.33
31299;BME280;17927;52.350;13.402;2023-06-22T01:20:23;101514.41;;;25.48;49.99
31299;BME280;17927;52.350;13.402;2023-06-22T01:28:34;101512.72;;;25.47;50.49
31299;BME280;17927;52.350;13.402;2023-06-22T01:31:00;101514.00;;;25.45;50.14
31299;BME280;17927;52.350;13.402;2023-06-22T01:33:33;101514.88;;;25.45;50.32
31299;BME280;17927;52.350;13.402;2023-06-22T01:36:00;101512.25;;;25.50;49.84
31299;BME280;17927;52.350;13.402;2023-06-22T01:38:28;101518.88;;;25.49;50.10
31299;BME280;17927;52.350;13.402;2023-06-22T01:40:54;101527.78;;;25.51;50.00
31299;BME280;17927;52.350;13.402;2023-06-22T01:43:21;101519.28;;;25.53;49.93
31299;BME280;17927;52.350;13.402;2023-06-22T01:45:48;101515.66;;;25.52;49.99
31299;BME280;17927;52.350;13.402;2023-06-22T01:48:13;101517.34;;;25.53;49.90
31299;BME280;17927;52.350;13.402;2023-06-22T01:50:39;101524.59;;;25.54;49.82
31299;BME280;17927;52.350;13.402;2023-06-22T01:53:05;101525.41;;;25.55;49.96
31299;BME280;17927;52.350;13.402;2023-06-22T01:55:31;101521.81;;;25.54;50.17
31299;BME280;17927;52.350;13.402;2023-06-22T01:57:57;101522.88;;;25.53;50.11
31299;BME280;17927;52.350;13.402;2023-06-22T02:00:24;101521.19;;;25.52;49.99
31299;BME280;17927;52.350;13.402;2023-06-22T02:03:01;101515.66;;;25.52;50.24
31299;BME280;17927;52.350;13.402;2023-06-22T02:05:31;101523.94;;;25.52;50.04
31299;BME280;17927;52.350;13.402;2023-06-22T02:08:00;101524.41;;;25.49;50.00
31299;BME280;17927;52.350;13.402;2023-06-22T02:10:27;101517.78;;;25.50;50.00
31299;BME280;17927;52.350;13.402;2023-06-22T02:12:54;101529.94;;;25.49;50.12
31299;BME280;17927;52.350;13.402;2023-06-22T02:15:20;101525.69;;;25.47;50.01
31299;BME280;17927;52.350;13.402;2023-06-22T02:17:46;101533.59;;;25.43;50.34
31299;BME280;17927;52.350;13.402;2023-06-22T02:20:13;101541.03;;;25.43;50.45
31299;BME280;17927;52.350;13.402;2023-06-22T02:22:39;101541.25;;;25.41;50.15
31299;BME280;17927;52.350;13.402;2023-06-22T02:25:04;101543.38;;;25.39;50.42
31299;BME280;17927;52.350;13.402;2023-06-22T02:27:29;101544.69;;;25.36;50.48
31299;BME280;17927;52.350;13.402;2023-06-22T02:29:54;101541.91;;;25.36;50.62
31299;BME280;17927;52.350;13.402;2023-06-22T02:32:20;101548.72;;;25.34;50.80
31299;BME280;17927;52.350;13.402;2023-06-22T02:34:45;101539.59;;;25.33;50.69
31299;BME280;17927;52.350;13.402;2023-06-22T02:37:13;101550.84;;;25.32;51.06
31299;BME280;17927;52.350;13.402;2023-06-22T02:39:39;101543.88;;;25.29;51.04
31299;BME280;17927;52.350;13.402;2023-06-22T02:42:05;101551.94;;;25.31;50.96
31299;BME280;17927;52.350;13.402;2023-06-22T02:44:30;101545.78;;;25.29;50.94
31299;BME280;17927;52.350;13.402;2023-06-22T02:46:56;101553.22;;;25.28;51.35
31299;BME280;17927;52.350;13.402;2023-06-22T02:49:21;101540.47;;;25.27;51.38
31299;BME280;17927;52.350;13.402;2023-06-22T02:51:47;101548.78;;;25.27;51.38
31299;BME280;17927;52.350;13.402;2023-06-22T02:54:13;101543.47;;;25.26;52.01
31299;BME280;17927;52.350;13.402;2023-06-22T02:56:38;101546.25;;;25.26;51.83
31299;BME280;17927;52.350;13.402;2023-06-22T02:59:06;101539.84;;;25.25;51.47
31299;BME280;17927;52.350;13.402;2023-06-22T03:01:31;101551.78;;;25.26;51.57
31299;BME280;17927;52.350;13.402;2023-06-22T03:04:03;101549.22;;;25.24;51.52
31299;BME280;17927;52.350;13.402;2023-06-22T03:06:28;101550.06;;;25.24;52.02
31299;BME280;17927;52.350;13.402;2023-06-22T03:08:59;101539.22;;;25.23;51.88
31299;BME280;17927;52.350;13.402;2023-06-22T03:11:24;101533.91;;;25.21;51.79
31299;BME280;17927;52.350;13.402;2023-06-22T03:13:50;101548.19;;;25.18;51.91
31299;BME280;17927;52.350;13.402;2023-06-22T03:16:17;101531.59;;;25.18;51.96
31299;BME280;17927;52.350;13.402;2023-06-22T03:18:42;101528.19;;;25.16;51.92
31299;BME280;17927;52.350;13.402;2023-06-22T03:21:07;101521.22;;;25.14;51.67
31299;BME280;17927;52.350;13.402;2023-06-22T03:23:32;101530.56;;;25.13;52.22
31299;BME280;17927;52.350;13.402;2023-06-22T03:25:58;101535.69;;;25.09;52.24
31299;BME280;17927;52.350;13.402;2023-06-22T03:28:23;101539.53;;;25.08;51.86
31299;BME280;17927;52.350;13.402;2023-06-22T03:30:48;101534.00;;;25.08;52.13
31299;BME280;17927;52.350;13.402;2023-06-22T03:33:13;101542.53;;;25.06;52.21
31299;BME280;17927;52.350;13.402;2023-06-22T03:35:39;101549.13;;;25.05;52.06
31299;BME280;17927;52.350;13.402;2023-06-22T03:38:04;101554.84;;;25.04;52.38
31299;BME280;17927;52.350;13.402;2023-06-22T03:40:29;101550.41;;;25.03;52.52
31299;BME280;17927;52.350;13.402;2023-06-22T03:42:55;101556.78;;;25.03;52.71
31299;BME280;17927;52.350;13.402;2023-06-22T03:45:20;101555.47;;;25.06;52.72
31299;BME280;17927;52.350;13.402;2023-06-22T03:47:46;101549.13;;;25.05;52.60
31299;BME280;17927;52.350;13.402;2023-06-22T03:50:11;101549.97;;;25.06;52.61
31299;BME280;17927;52.350;13.402;2023-06-22T03:52:36;101545.28;;;25.06;52.62
31299;BME280;17927;52.350;13.402;2023-06-22T03:55:01;101548.66;;;25.08;53.18
31299;BME280;17927;52.350;13.402;2023-06-22T03:57:27;101552.06;;;25.11;52.80
31299;BME280;17927;52.350;13.402;2023-06-22T03:59:56;101553.75;;;25.12;53.13
31299;BME280;17927;52.350;13.402;2023-06-22T04:02:21;101559.06;;;25.13;53.00
31299;BME280;17927;52.350;13.402;2023-06-22T04:04:46;101566.91;;;25.16;53.00
31299;BME280;17927;52.350;13.402;2023-06-22T04:07:12;101568.59;;;25.17;53.03
31299;BME280;17927;52.350;13.402;2023-06-22T04:09:37;101554.78;;;25.17;53.02
31299;BME280;17927;52.350;13.402;2023-06-22T04:12:02;101559.66;;;25.22;53.02
31299;BME280;17927;52.350;13.402;2023-06-22T04:14:28;101553.91;;;25.23;53.07
31299;BME280;17927;52.350;13.402;2023-06-22T04:16:53;101556.22;;;25.27;52.90
31299;BME280;17927;52.350;13.402;2023-06-22T04:19:18;101571.28;;;25.31;53.13
31299;BME280;17927;52.350;13.402;2023-06-22T04:21:44;101567.69;;;25.30;53.16
31299;BME280;17927;52.350;13.402;2023-06-22T04:24:10;101565.31;;;25.34;53.25
31299;BME280;17927;52.350;13.402;2023-06-22T04:26:35;101567.19;;;25.40;53.34
31299;BME280;17927;52.350;13.402;2023-06-22T04:29:02;101572.31;;;25.43;53.42
31299;BME280;17927;52.350;13.402;2023-06-22T04:31:30;101578.25;;;25.47;53.19
31299;BME280;17927;52.350;13.402;2023-06-22T04:33:57;101576.50;;;25.52;53.19
31299;BME280;17927;52.350;13.402;2023-06-22T04:36:22;101576.06;;;25.56;53.17
31299;BME280;17927;52.350;13.402;2023-06-22T04:38:48;101585.38;;;25.61;53.22
31299;BME280;17927;52.350;13.402;2023-06-22T04:41:14;101592.78;;;25.67;53.12
31299;BME280;17927;52.350;13.402;2023-06-22T04:43:49;101593.81;;;25.73;52.98
31299;BME280;17927;52.350;13.402;2023-06-22T04:46:19;101587.84;;;25.76;52.89
31299;BME280;17927;52.350;13.402;2023-06-22T04:48:44;101590.56;;;25.83;53.12
31299;BME280;17927;52.350;13.402;2023-06-22T04:51:09;101583.03;;;25.90;52.86
31299;BME280;17927;52.350;13.402;2023-06-22T04:53:35;101592.97;;;25.98;52.43
31299;BME280;17927;52.350;13.402;2023-06-22T04:56:00;101597.38;;;26.06;52.24
31299;BME280;17927;52.350;13.402;2023-06-22T04:58:25;101591.81;;;26.12;52.22
31299;BME280;17927;52.350;13.402;2023-06-22T05:00:53;101590.03;;;26.18;51.92
31299;BME280;17927;52.350;13.402;2023-06-22T05:03:21;101588.28;;;26.24;51.79
31299;BME280;17927;52.350;13.402;2023-06-22T05:05:47;101584.84;;;26.28;51.54
31299;BME280;17927;52.350;13.402;2023-06-22T05:08:13;101576.69;;;26.34;51.59
31299;BME280;17927;52.350;13.402;2023-06-22T05:10:38;101573.25;;;26.38;51.43
31299;BME280;17927;52.350;13.402;2023-06-22T05:13:03;101567.84;;;26.43;51.38
31299;BME280;17927;52.350;13.402;2023-06-22T05:15:29;101571.63;;;26.49;51.22
31299;BME280;17927;52.350;13.402;2023-06-22T05:17:55;101575.16;;;26.56;50.99
31299;BME280;17927;52.350;13.402;2023-06-22T05:20:22;101582.09;;;26.66;51.18
31299;BME280;17927;52.350;13.402;2023-06-22T05:22:47;101593.72;;;26.74;51.18
31299;BME280;17927;52.350;13.402;2023-06-22T05:25:12;101594.91;;;26.85;50.94
31299;BME280;17927;52.350;13.402;2023-06-22T05:27:38;101592.66;;;26.94;50.95
31299;BME280;17927;52.350;13.402;2023-06-22T05:30:08;101588.47;;;27.03;50.29
31299;BME280;17927;52.350;13.402;2023-06-22T05:32:34;101588.63;;;27.09;50.01
31299;BME280;17927;52.350;13.402;2023-06-22T05:35:00;101587.47;;;27.16;49.69
31299;BME280;17927;52.350;13.402;2023-06-22T05:37:25;101595.69;;;27.23;50.05
31299;BME280;17927;52.350;13.402;2023-06-22T05:39:51;101590.91;;;27.30;49.89
31299;BME280;17927;52.350;13.402;2023-06-22T05:42:16;101594.88;;;27.34;49.38
31299;BME280;17927;52.350;13.402;2023-06-22T05:44:41;101604.06;;;27.35;49.11
31299;BME280;17927;52.350;13.402;2023-06-22T05:47:07;101598.72;;;27.33;49.15
31299;BME280;17927;52.350;13.402;2023-06-22T05:49:32;101603.19;;;27.34;49.07
31299;BME280;17927;52.350;13.402;2023-06-22T05:51:58;101609.00;;;27.33;49.03
31299;BME280;17927;52.350;13.402;2023-06-22T05:54:24;101601.13;;;27.30;48.59
31299;BME280;17927;52.350;13.402;2023-06-22T05:56:50;101602.47;;;27.27;48.52
31299;BME280;17927;52.350;13.402;2023-06-22T05:59:15;101597.38;;;27.24;48.13
31299;BME280;17927;52.350;13.402;2023-06-22T06:01:40;101603.38;;;27.21;47.97
31299;BME280;17927;52.350;13.402;2023-06-22T06:04:05;101601.06;;;27.18;48.20
31299;BME280;17927;52.350;13.402;2023-06-22T06:06:33;101606.63;;;27.18;48.12
31299;BME280;17927;52.350;13.402;2023-06-22T06:09:00;101605.78;;;27.17;47.97
31299;BME280;17927;52.350;13.402;2023-06-22T06:11:25;101608.31;;;27.19;47.96
31299;BME280;17927;52.350;13.402;2023-06-22T06:13:51;101602.78;;;27.19;47.64
31299;BME280;17927;52.350;13.402;2023-06-22T06:16:16;101606.41;;;27.19;47.83
31299;BME280;17927;52.350;13.402;2023-06-22T06:18:41;101604.25;;;27.22;47.86
31299;BME280;17927;52.350;13.402;2023-06-22T06:21:06;101605.94;;;27.23;47.93
31299;BME280;17927;52.350;13.402;2023-06-22T06:23:32;101613.56;;;27.27;47.97
31299;BME280;17927;52.350;13.402;2023-06-22T06:25:57;101612.59;;;27.33;47.66
31299;BME280;17927;52.350;13.402;2023-06-22T06:28:24;101609.97;;;27.39;47.41
31299;BME280;17927;52.350;13.402;2023-06-22T06:30:50;101619.28;;;27.44;47.08
31299;BME280;17927;52.350;13.402;2023-06-22T06:33:17;101612.56;;;27.52;46.99
31299;BME280;17927;52.350;13.402;2023-06-22T06:35:42;101615.50;;;27.57;47.18
31299;BME280;17927;52.350;13.402;2023-06-22T06:38:07;101608.75;;;27.65;47.06
31299;BME280;17927;52.350;13.402;2023-06-22T06:40:32;101609.50;;;27.72;47.31
31299;BME280;17927;52.350;13.402;2023-06-22T06:42:58;101606.03;;;27.77;47.11
31299;BME280;17927;52.350;13.402;2023-06-22T06:45:23;101599.91;;;27.87;46.92
31299;BME280;17927;52.350;13.402;2023-06-22T06:47:50;101607.03;;;27.94;46.27
31299;BME280;17927;52.350;13.402;2023-06-22T06:50:16;101604.97;;;28.02;46.26
31299;BME280;17927;52.350;13.402;2023-06-22T06:52:41;101604.00;;;28.08;46.02
31299;BME280;17927;52.350;13.402;2023-06-22T06:55:08;101592.34;;;28.18;45.85
31299;BME280;17927;52.350;13.402;2023-06-22T06:57:36;101588.09;;;28.27;45.74
31299;BME280;17927;52.350;13.402;2023-06-22T07:00:03;101593.06;;;28.37;45.38
31299;BME280;17927;52.350;13.402;2023-06-22T07:02:34;101572.03;;;28.41;44.69
31299;BME280;17927;52.350;13.402;2023-06-22T07:04:59;101568.53;;;28.46;44.78
31299;BME280;17927;52.350;13.402;2023-06-22T07:07:24;101568.28;;;28.47;43.92
31299;BME280;17927;52.350;13.402;2023-06-22T07:09:49;101568.41;;;28.52;43.76
31299;BME280;17927;52.350;13.402;2023-06-22T07:12:15;101568.25;;;28.59;43.57
31299;BME280;17927;52.350;13.402;2023-06-22T07:14:40;101564.00;;;28.68;43.70
31299;BME280;17927;52.350;13.402;2023-06-22T07:17:05;101561.72;;;28.77;43.16
31299;BME280;17927;52.350;13.402;2023-06-22T07:19:32;101561.94;;;28.88;42.94
31299;BME280;17927;52.350;13.402;2023-06-22T07:21:58;101570.97;;;28.95;42.78
31299;BME280;17927;52.350;13.402;2023-06-22T07:24:24;101564.44;;;29.01;42.41
31299;BME280;17927;52.350;13.402;2023-06-22T07:26:50;101562.81;;;29.05;42.35
31299;BME280;17927;52.350;13.402;2023-06-22T07:29:16;101573.22;;;29.10;42.36
31299;BME280;17927;52.350;13.402;2023-06-22T07:31:42;101567.13;;;29.13;42.43
31299;BME280;17927;52.350;13.402;2023-06-22T07:34:07;101566.91;;;29.14;42.23
31299;BME280;17927;52.350;13.402;2023-06-22T07:36:32;101555.28;;;29.17;42.35
31299;BME280;17927;52.350;13.402;2023-06-22T07:38:58;101566.50;;;29.23;42.26
31299;BME280;17927;52.350;13.402;2023-06-22T07:41:23;101563.00;;;29.27;42.14
31299;BME280;17927;52.350;13.402;2023-06-22T07:43:48;101565.25;;;29.30;42.17
31299;BME280;17927;52.350;13.402;2023-06-22T07:46:14;101551.94;;;29.32;41.75
31299;BME280;17927;52.350;13.402;2023-06-22T07:48:39;101554.00;;;29.37;41.39
31299;BME280;17927;52.350;13.402;2023-06-22T07:51:06;101558.81;;;29.42;41.19
31299;BME280;17927;52.350;13.402;2023-06-22T07:53:32;101561.44;;;29.49;41.12
31299;BME280;17927;52.350;13.402;2023-06-22T07:55:57;101561.50;;;29.54;40.93
31299;BME280;17927;52.350;13.402;2023-06-22T07:58:22;101563.56;;;29.58;41.03
31299;BME280;17927;52.350;13.402;2023-06-22T08:00:48;101563.41;;;29.65;40.87
31299;BME280;17927;52.350;13.402;2023-06-22T08:03:14;101574.00;;;29.68;40.19
31299;BME280;17927;52.350;13.402;2023-06-22T08:05:39;101575.19;;;29.72;40.26
31299;BME280;17927;52.350;13.402;2023-06-22T08:08:04;101573.59;;;29.76;40.53
31299;BME280;17927;52.350;13.402;2023-06-22T08:10:30;101564.75;;;29.80;40.15
31299;BME280;17927;52.350;13.402;2023-06-22T08:12:55;101572.06;;;29.86;40.16
31299;BME280;17927;52.350;13.402;2023-06-22T08:15:20;101563.22;;;29.89;39.69
31299;BME280;17927;52.350;13.402;2023-06-22T08:17:47;101565.03;;;29.95;39.85
31299;BME280;17927;52.350;13.402;2023-06-22T08:20:12;101544.50;;;30.01;39.81
31299;BME280;17927;52.350;13.402;2023-06-22T08:22:38;101550.66;;;30.03;39.17
31299;BME280;17927;52.350;13.402;2023-06-22T08:25:04;101537.06;;;30.07;39.42
31299;BME280;17927;52.350;13.402;2023-06-22T08:27:30;101547.69;;;30.10;39.07
31299;BME280;17927;52.350;13.402;2023-06-22T08:29:57;101548.28;;;30.12;39.00
31299;BME280;17927;52.350;13.402;2023-06-22T08:32:24;101543.03;;;30.16;38.79
31299;BME280;17927;52.350;13.402;2023-06-22T08:34:50;101548.97;;;30.19;38.92
31299;BME280;17927;52.350;13.402;2023-06-22T08:37:15;101541.16;;;30.21;39.14
31299;BME280;17927;52.350;13.402;2023-06-22T08:39:40;101542.09;;;30.27;38.96
31299;BME280;17927;52.350;13.402;2023-06-22T08:42:06;101549.41;;;30.33;38.99
31299;BME280;17927;52.350;13.402;2023-06-22T08:44:31;101548.41;;;30.40;38.74
31299;BME280;17927;52.350;13.402;2023-06-22T08:46:57;101549.91;;;30.47;39.13
31299;BME280;17927;52.350;13.402;2023-06-22T08:49:22;101547.78;;;30.55;38.87
31299;BME280;17927;52.350;13.402;2023-06-22T08:51:47;101549.28;;;30.62;38.66
31299;BME280;17927;52.350;13.402;2023-06-22T08:54:14;101561.09;;;30.70;38.70
31299;BME280;17927;52.350;13.402;2023-06-22T08:56:39;101557.00;;;30.77;38.58
31299;BME280;17927;52.350;13.402;2023-06-22T08:59:05;101560.16;;;30.86;38.62
31299;BME280;17927;52.350;13.402;2023-06-22T09:01:33;101556.06;;;30.94;38.48
31299;BME280;17927;52.350;13.402;2023-06-22T09:03:58;101558.66;;;31.01;38.55
31299;BME280;17927;52.350;13.402;2023-06-22T09:06:24;101548.66;;;31.05;37.99
31299;BME280;17927;52.350;13.402;2023-06-22T09:08:50;101547.56;;;31.06;38.44
31299;BME280;17927;52.350;13.402;2023-06-22T09:11:15;101542.53;;;31.08;37.92
31299;BME280;17927;52.350;13.402;2023-06-22T09:13:40;101548.97;;;31.08;37.97
31299;BME280;17927;52.350;13.402;2023-06-22T09:16:05;101543.97;;;31.10;37.25
31299;BME280;17927;52.350;13.402;2023-06-22T09:18:31;101539.84;;;31.13;37.13
31299;BME280;17927;52.350;13.402;2023-06-22T09:20:57;101537.34;;;31.17;36.56
31299;BME280;17927;52.350;13.402;2023-06-22T09:23:22;101547.75;;;31.21;36.79
31299;BME280;17927;52.350;13.402;2023-06-22T09:25:47;101543.31;;;31.25;36.98
31299;BME280;17927;52.350;13.402;2023-06-22T09:28:13;101544.19;;;31.31;36.99
31299;BME280;17927;52.350;13.402;2023-06-22T09:30:39;101545.38;;;31.35;36.53
31299;BME280;17927;52.350;13.402;2023-06-22T09:33:04;101547.03;;;31.36;36.06
31299;BME280;17927;52.350;13.402;2023-06-22T09:35:29;101539.53;;;31.37;36.04
31299;BME280;17927;52.350;13.402;2023-06-22T09:37:54;101536.47;;;31.38;36.03
31299;BME280;17927;52.350;13.402;2023-06-22T09:40:20;101543.47;;;31.41;35.76
31299;BME280;17927;52.350;13.402;2023-06-22T09:42:45;101534.56;;;31.44;36.01
31299;BME280;17927;52.350;13.402;2023-06-22T09:45:10;101534.88;;;31.48;35.88
31299;BME280;17927;52.350;13.402;2023-06-22T09:47:36;101532.13;;;31.53;35.47
31299;BME280;17927;52.350;13.402;2023-06-22T09:50:01;101525.75;;;31.57;35.83
31299;BME280;17927;52.350;13.402;2023-06-22T09:52:26;101533.63;;;31.66;35.52
31299;BME280;17927;52.350;13.402;2023-06-22T09:54:51;101530.91;;;31.71;35.72
31299;BME280;17927;52.350;13.402;2023-06-22T09:57:17;101530.13;;;31.76;35.89
31299;BME280;17927;52.350;13.402;2023-06-22T09:59:42;101532.09;;;31.80;35.15
31299;BME280;17927;52.350;13.402;2023-06-22T10:02:08;101520.41;;;31.83;35.17
31299;BME280;17927;52.350;13.402;2023-06-22T10:04:34;101527.09;;;31.87;35.10
31299;BME280;17927;52.350;13.402;2023-06-22T10:07:00;101527.44;;;31.91;34.66
31299;BME280;17927;52.350;13.402;2023-06-22T10:09:25;101529.41;;;31.96;34.89
31299;BME280;17927;52.350;13.402;2023-06-22T10:11:50;101523.28;;;31.99;35.06
31299;BME280;17927;52.350;13.402;2023-06-22T10:14:16;101519.09;;;32.01;35.10
31299;BME280;17927;52.350;13.402;2023-06-22T10:16:41;101526.09;;;32.04;35.51
31299;BME280;17927;52.350;13.402;2023-06-22T10:19:07;101518.28;;;32.06;34.51
31299;BME280;17927;52.350;13.402;2023-06-22T10:21:32;101517.19;;;32.07;34.88
31299;BME280;17927;52.350;13.402;2023-06-22T10:23:58;101518.03;;;32.08;34.25
31299;BME280;17927;52.350;13.402;2023-06-22T10:26:24;101516.66;;;32.10;34.83
31299;BME280;17927;52.350;13.402;2023-06-22T10:28:49;101510.78;;;32.12;34.43
31299;BME280;17927;52.350;13.402;2023-06-22T10:31:15;101509.97;;;32.16;34.58
31299;BME280;17927;52.350;13.402;2023-06-22T10:33:41;101507.75;;;32.18;34.36
31299;BME280;17927;52.350;13.402;2023-06-22T10:36:08;101503.59;;;32.21;34.57
31299;BME280;17927;52.350;13.402;2023-06-22T10:38:34;101509.47;;;32.25;33.87
31299;BME280;17927;52.350;13.402;2023-06-22T10:40:59;101501.41;;;32.28;34.04
31299;BME280;17927;52.350;13.402;2023-06-22T10:43:24;101504.75;;;32.30;34.14
31299;BME280;17927;52.350;13.402;2023-06-22T10:45:49;101515.66;;;32.32;33.73
31299;BME280;17927;52.350;13.402;2023-06-22T10:48:15;101507.84;;;32.34;34.17
31299;BME280;17927;52.350;13.402;2023-06-22T10:50:40;101508.41;;;32.36;33.88
31299;BME280;17927;52.350;13.402;2023-06-22T10:53:05;101501.72;;;32.37;33.54
31299;BME280;17927;52.350;13.402;2023-06-22T10:55:31;101500.59;;;32.38;33.99
31299;BME280;17927;52.350;13.402;2023-06-22T10:57:56;101500.06;;;32.41;34.31
31299;BME280;17927;52.350;13.402;2023-06-22T11:00:21;101502.03;;;32.46;34.68
31299;BME280;17927;52.350;13.402;2023-06-22T11:02:46;101489.47;;;32.48;34.42
31299;BME280;17927;52.350;13.402;2023-06-22T11:05:12;101487.56;;;32.54;34.76
31299;BME280;17927;52.350;13.402;2023-06-22T11:07:41;101475.53;;;32.59;34.67
31299;BME280;17927;52.350;13.402;2023-06-22T11:10:07;101468.00;;;32.64;34.19
31299;BME280;17927;52.350;13.402;2023-06-22T11:12:32;101475.56;;;32.69;34.70
31299;BME280;17927;52.350;13.402;2023-06-22T11:14:57;101473.91;;;32.73;34.55
31299;BME280;17927;52.350;13.402;2023-06-22T11:17:22;101469.44;;;32.77;33.93
31299;BME280;17927;52.350;13.402;2023-06-22T11:19:48;101458.78;;;32.79;33.76
31299;BME280;17927;52.350;13.402;2023-06-22T11:22:13;101457.44;;;32.82;34.22
31299;BME280;17927;52.350;13.402;2023-06-22T11:24:38;101453.25;;;32.85;34.21
31299;BME280;17927;52.350;13.402;2023-06-22T11:27:04;101451.59;;;32.89;33.31
31299;BME280;17927;52.350;13.402;2023-06-22T11:29:29;101456.63;;;32.92;33.76
31299;BME280;17927;52.350;13.402;2023-06-22T11:31:55;101460.25;;;32.98;33.76
31299;BME280;17927;52.350;13.402;2023-06-22T11:34:21;101459.44;;;33.02;33.79
31299;BME280;17927;52.350;13.402;2023-06-22T11:36:46;101457.75;;;33.06;33.00
31299;BME280;17927;52.350;13.402;2023-06-22T11:39:13;101454.13;;;33.11;32.97
31299;BME280;17927;52.350;13.402;2023-06-22T11:41:40;101452.16;;;33.17;33.73
31299;BME280;17927;52.350;13.402;2023-06-22T11:44:05;101455.25;;;33.25;33.34
31299;BME280;17927;52.350;13.402;2023-06-22T11:46:30;101463.34;;;33.32;32.90
31299;BME280;17927;52.350;13.402;2023-06-22T11:48:57;101460.84;;;33.41;32.75
31299;BME280;17927;52.350;13.402;2023-06-22T11:51:22;101461.69;;;33.47;32.70
31299;BME280;17927;52.350;13.402;2023-06-22T11:53:47;101466.44;;;33.51;32.70
31299;BME280;17927;52.350;13.402;2023-06-22T11:56:12;101457.19;;;33.56;32.78
31299;BME280;17927;52.350;13.402;2023-06-22T11:58:37;101455.25;;;33.62;32.13
31299;BME280;17927;52.350;13.402;2023-06-22T12:01:03;101446.00;;;33.66;32.04
31299;BME280;17927;52.350;13.402;2023-06-22T12:03:28;101439.78;;;33.75;31.20
31299;BME280;17927;52.350;13.402;2023-06-22T12:05:54;101440.91;;;33.79;30.87
31299;BME280;17927;52.350;13.402;2023-06-22T12:08:19;101431.09;;;33.86;31.59
31299;BME280;17927;52.350;13.402;2023-06-22T12:10:44;101430.53;;;33.95;31.64
31299;BME280;17927;52.350;13.402;2023-06-22T12:13:10;101418.44;;;34.05;31.51
31299;BME280;17927;52.350;13.402;2023-06-22T12:15:35;101427.38;;;34.12;31.33
31299;BME280;17927;52.350;13.402;2023-06-22T12:18:00;101421.16;;;34.20;30.37
31299;BME280;17927;52.350;13.402;2023-06-22T12:20:26;101425.06;;;34.29;30.06
31299;BME280;17927;52.350;13.402;2023-06-22T12:22:51;101417.75;;;34.34;30.50
31299;BME280;17927;52.350;13.402;2023-06-22T12:25:17;101419.41;;;34.40;30.56
31299;BME280;17927;52.350;13.402;2023-06-22T12:27:43;101415.75;;;34.44;29.58
31299;BME280;17927;52.350;13.402;2023-06-22T12:30:08;101410.69;;;34.52;30.52
31299;BME280;17927;52.350;13.402;2023-06-22T12:32:33;101406.41;;;34.65;31.14
31299;BME280;17927;52.350;13.402;2023-06-22T12:34:59;101403.72;;;34.84;31.26
31299;BME280;17927;52.350;13.402;2023-06-22T12:37:24;101400.16;;;35.13;30.52
31299;BME280;17927;52.350;13.402;2023-06-22T12:39:49;101396.75;;;35.45;30.95